createdAt,value
2018-06-29T00:00:56.760Z,1.20
2018-06-29T00:03:25.445Z,1.30
2018-06-29T00:05:54.209Z,1.55
2018-06-29T00:08:22.560Z,2.05
2018-06-29T00:10:51.049Z,1.77
2018-06-29T00:13:19.585Z,1.32
2018-06-29T00:15:48.189Z,1.37
2018-06-29T00:18:16.578Z,1.20
2018-06-29T00:20:45.015Z,1.67
2018-06-29T00:23:13.366Z,1.50
2018-06-29T00:25:41.645Z,1.57
2018-06-29T00:28:10.024Z,2.00
2018-06-29T00:30:38.613Z,1.40
2018-06-29T00:33:06.928Z,1.60
2018-06-29T00:35:35.315Z,1.85
2018-06-29T00:38:03.728Z,1.50
2018-06-29T00:40:32.073Z,1.45
2018-06-29T00:43:00.662Z,1.57
2018-06-29T00:45:29.028Z,1.50
2018-06-29T00:47:57.544Z,1.70
2018-06-29T00:50:25.960Z,1.70
2018-06-29T00:52:55.054Z,1.37
2018-06-29T00:55:23.511Z,1.50
2018-06-29T00:57:51.854Z,1.82
2018-06-29T01:00:20.254Z,1.42
2018-06-29T01:02:48.561Z,1.55
2018-06-29T01:05:16.927Z,1.70
2018-06-29T01:07:45.313Z,1.47
2018-06-29T01:10:13.651Z,1.57
2018-06-29T01:12:42.031Z,1.50
2018-06-29T01:15:10.400Z,1.70
2018-06-29T01:17:38.791Z,1.57
2018-06-29T01:20:07.107Z,1.57
2018-06-29T01:22:35.539Z,1.65
2018-06-29T01:25:03.916Z,1.80
2018-06-29T01:27:32.302Z,1.72
2018-06-29T01:30:00.939Z,1.30
2018-06-29T01:32:29.380Z,1.70
2018-06-29T01:34:57.742Z,1.57
2018-06-29T01:37:26.157Z,2.12
2018-06-29T01:39:54.891Z,1.45
2018-06-29T01:42:23.243Z,1.52
2018-06-29T01:44:51.598Z,1.70
2018-06-29T01:47:20.093Z,1.55
2018-06-29T01:49:48.433Z,1.70
2018-06-29T01:52:16.528Z,1.70
2018-06-29T01:54:44.976Z,1.80
2018-06-29T01:57:13.362Z,1.62
2018-06-29T01:59:41.675Z,1.50
2018-06-29T02:02:10.000Z,2.27
2018-06-29T02:04:38.418Z,1.60
2018-06-29T02:07:06.935Z,1.90
2018-06-29T02:09:35.514Z,2.25
2018-06-29T02:12:04.015Z,2.10
2018-06-29T02:14:32.401Z,1.90
2018-06-29T02:17:00.716Z,2.30
2018-06-29T02:19:29.089Z,1.82
2018-06-29T02:21:57.460Z,2.08
2018-06-29T02:24:25.770Z,2.30
2018-06-29T02:26:54.086Z,2.47
2018-06-29T02:29:23.581Z,2.00
2018-06-29T02:31:51.889Z,2.40
2018-06-29T02:34:20.205Z,2.35
2018-06-29T02:36:48.544Z,2.20
2018-06-29T02:39:16.895Z,2.10
2018-06-29T02:41:45.252Z,2.58
2018-06-29T02:44:13.732Z,2.02
2018-06-29T02:46:42.275Z,2.08
2018-06-29T02:49:10.756Z,2.47
2018-06-29T02:51:39.135Z,2.10
2018-06-29T02:54:07.456Z,2.58
2018-06-29T02:56:35.844Z,2.15
2018-06-29T02:59:04.130Z,2.42
2018-06-29T03:01:32.446Z,2.70
2018-06-29T03:04:00.766Z,2.40
2018-06-29T03:06:29.082Z,2.60
2018-06-29T03:08:57.422Z,2.65
2018-06-29T03:11:25.766Z,2.80
2018-06-29T03:13:54.248Z,3.22
2018-06-29T03:16:22.564Z,2.58
2018-06-29T03:18:50.973Z,2.62
2018-06-29T03:21:19.383Z,2.92
2018-06-29T03:23:47.852Z,2.92
2018-06-29T03:26:16.283Z,2.92
2018-06-29T03:28:44.595Z,2.85
2018-06-29T03:31:12.937Z,3.10
2018-06-29T03:33:41.427Z,3.05
2018-06-29T03:36:09.750Z,2.80
2018-06-29T03:38:38.060Z,3.22
2018-06-29T03:41:06.650Z,2.77
2018-06-29T03:43:34.990Z,2.92
2018-06-29T03:46:03.370Z,3.40
2018-06-29T03:48:31.700Z,2.67
2018-06-29T03:51:00.249Z,2.87
2018-06-29T03:53:28.582Z,3.30
2018-06-29T03:55:57.076Z,2.58
2018-06-29T03:58:25.557Z,3.12
2018-06-29T04:00:53.750Z,3.27
2018-06-29T04:03:22.231Z,3.72
2018-06-29T04:05:50.553Z,3.47
2018-06-29T04:08:18.893Z,3.80
2018-06-29T04:10:47.356Z,3.40
2018-06-29T04:13:15.679Z,3.22
2018-06-29T04:15:43.989Z,2.98
2018-06-29T04:18:12.364Z,3.42
2018-06-29T04:20:40.843Z,3.85
2018-06-29T04:23:09.211Z,3.85
2018-06-29T04:25:37.531Z,3.70
2018-06-29T04:28:05.864Z,3.47
2018-06-29T04:30:34.144Z,4.25
2018-06-29T04:33:02.484Z,3.77
2018-06-29T04:35:30.887Z,4.25
2018-06-29T04:38:00.578Z,3.95
2018-06-29T04:40:29.483Z,4.05
2018-06-29T04:42:59.355Z,3.35
2018-06-29T04:45:28.040Z,4.45
2018-06-29T04:47:56.422Z,3.50
2018-06-29T04:50:24.723Z,3.90
2018-06-29T04:52:53.021Z,4.30
2018-06-29T04:55:21.311Z,4.03
2018-06-29T04:57:49.646Z,4.47
2018-06-29T05:00:18.003Z,4.17
2018-06-29T05:02:46.418Z,3.80
2018-06-29T05:05:14.709Z,4.03
2018-06-29T05:07:43.050Z,4.22
2018-06-29T05:10:11.356Z,4.50
2018-06-29T05:12:39.748Z,4.20
2018-06-29T05:15:08.235Z,4.12
2018-06-29T05:17:36.682Z,4.70
2018-06-29T05:20:05.593Z,4.87
2018-06-29T05:22:33.980Z,4.80
2018-06-29T05:25:02.333Z,5.15
2018-06-29T05:27:30.640Z,5.37
2018-06-29T05:29:59.155Z,5.45
2018-06-29T05:32:27.553Z,5.62
2018-06-29T05:34:55.884Z,5.00
2018-06-29T05:37:24.235Z,5.78
2018-06-29T05:39:52.661Z,5.50
2018-06-29T05:42:21.110Z,5.70
2018-06-29T05:44:49.465Z,5.40
2018-06-29T05:47:17.829Z,5.50
2018-06-29T05:49:46.423Z,5.78
2018-06-29T05:52:14.957Z,5.25
2018-06-29T05:54:43.416Z,5.30
2018-06-29T05:57:14.130Z,4.87
2018-06-29T05:59:42.588Z,4.65
2018-06-29T06:02:12.158Z,5.17
2018-06-29T06:04:40.531Z,5.60
2018-06-29T06:07:09.172Z,5.83
2018-06-29T06:09:38.008Z,4.80
2018-06-29T06:12:07.261Z,5.22
2018-06-29T06:14:35.652Z,5.00
2018-06-29T06:17:04.235Z,5.17
2018-06-29T06:19:43.811Z,5.33
2018-06-29T06:22:12.199Z,5.22
2018-06-29T06:24:40.540Z,4.87
2018-06-29T06:27:08.906Z,5.20
2018-06-29T06:29:37.294Z,5.45
2018-06-29T06:32:06.915Z,4.78
2018-06-29T06:34:35.378Z,5.53
2018-06-29T06:37:03.862Z,5.08
2018-06-29T06:39:32.212Z,5.42
2018-06-29T06:42:00.558Z,4.78
2018-06-29T06:44:28.894Z,5.25
2018-06-29T06:46:57.279Z,5.10
2018-06-29T06:49:25.637Z,5.25
2018-06-29T06:51:54.072Z,5.10
2018-06-29T06:54:22.496Z,4.65
2018-06-29T06:56:50.988Z,5.05
2018-06-29T06:59:19.431Z,5.30
2018-06-29T07:01:47.665Z,4.45
2018-06-29T07:04:16.090Z,5.22
2018-06-29T07:06:44.478Z,4.80
2018-06-29T07:09:14.000Z,4.67
2018-06-29T07:11:42.672Z,4.42
2018-06-29T07:14:11.083Z,4.30
2018-06-29T07:16:39.451Z,4.97
2018-06-29T07:19:08.012Z,5.12
2018-06-29T07:21:36.592Z,4.28
2018-06-29T07:24:05.040Z,5.05
2018-06-29T07:26:33.379Z,4.90
2018-06-29T07:29:01.830Z,4.53
2018-06-29T07:31:30.209Z,4.20
2018-06-29T07:33:58.712Z,4.05
2018-06-29T07:36:27.406Z,4.42
2018-06-29T07:38:55.766Z,4.00
2018-06-29T07:41:24.150Z,4.00
2018-06-29T07:43:52.582Z,3.67
2018-06-29T07:46:20.983Z,3.62
2018-06-29T07:48:49.342Z,4.33
2018-06-29T07:51:17.708Z,4.00
2018-06-29T07:53:46.158Z,3.92
2018-06-29T07:56:14.640Z,3.65
2018-06-29T07:58:43.250Z,3.40
2018-06-29T08:01:11.719Z,2.92
2018-06-29T08:03:40.040Z,2.72
2018-06-29T08:06:08.537Z,2.47
2018-06-29T08:08:37.172Z,3.12
2018-06-29T08:11:05.821Z,3.15
2018-06-29T08:13:34.351Z,2.92
2018-06-29T08:16:02.811Z,2.40
2018-06-29T08:18:31.240Z,2.72
2018-06-29T08:20:59.699Z,2.50
2018-06-29T08:23:32.433Z,2.40
2018-06-29T08:26:12.572Z,2.20
2018-06-29T08:28:41.065Z,2.08
2018-06-29T08:31:10.264Z,2.72
2018-06-29T08:33:38.934Z,2.12
2018-06-29T08:36:07.905Z,2.05
2018-06-29T08:38:37.071Z,1.87
2018-06-29T08:41:05.432Z,1.47
2018-06-29T08:43:33.844Z,1.67
2018-06-29T08:46:02.182Z,1.80
2018-06-29T08:48:30.551Z,1.80
2018-06-29T08:50:59.245Z,1.80
2018-06-29T08:53:27.949Z,1.60
2018-06-29T08:55:56.322Z,1.67
2018-06-29T08:58:24.667Z,2.00
2018-06-29T09:00:52.972Z,2.20
2018-06-29T09:03:21.398Z,1.80
2018-06-29T09:05:49.830Z,1.82
2018-06-29T09:08:18.174Z,1.57
2018-06-29T09:10:47.323Z,1.67
2018-06-29T09:13:15.764Z,2.10
2018-06-29T09:15:44.178Z,1.67
2018-06-29T09:18:12.250Z,1.82
2018-06-29T09:20:40.582Z,2.25
2018-06-29T09:23:09.056Z,1.72
2018-06-29T09:25:37.439Z,1.90
2018-06-29T09:28:05.742Z,1.80
2018-06-29T09:30:34.093Z,1.95
2018-06-29T09:33:02.395Z,1.82
2018-06-29T09:35:30.746Z,2.05
2018-06-29T09:37:59.041Z,1.82
2018-06-29T09:40:27.397Z,1.55
2018-06-29T09:42:55.781Z,2.05
2018-06-29T09:45:24.239Z,1.62
2018-06-29T09:47:52.677Z,2.10
2018-06-29T09:50:21.024Z,1.67
2018-06-29T09:52:49.545Z,1.65
2018-06-29T09:55:17.951Z,2.10
2018-06-29T09:57:46.266Z,1.70
2018-06-29T10:00:20.771Z,1.80
2018-06-29T10:02:49.139Z,1.98
2018-06-29T10:05:17.496Z,1.80
2018-06-29T10:07:45.847Z,2.02
2018-06-29T10:10:14.222Z,2.17
2018-06-29T10:12:42.572Z,1.77
2018-06-29T10:15:10.925Z,1.77
2018-06-29T10:17:39.279Z,1.90
2018-06-29T10:20:07.674Z,2.20
2018-06-29T10:22:35.992Z,1.77
2018-06-29T10:25:04.334Z,1.77
2018-06-29T10:27:32.708Z,1.70
2018-06-29T10:30:01.114Z,1.62
2018-06-29T10:32:29.506Z,1.72
2018-06-29T10:34:57.916Z,1.70
2018-06-29T10:37:26.360Z,1.90
2018-06-29T10:39:54.838Z,1.40
2018-06-29T10:42:23.233Z,1.55
2018-06-29T10:44:51.667Z,1.60
2018-06-29T10:47:20.146Z,1.57
2018-06-29T10:49:48.480Z,1.60
2018-06-29T10:52:16.809Z,1.62
2018-06-29T10:54:45.993Z,1.52
2018-06-29T10:57:14.377Z,1.35
2018-06-29T10:59:42.752Z,1.80
2018-06-29T11:02:11.130Z,1.70
2018-06-29T11:04:39.485Z,1.40
2018-06-29T11:07:07.824Z,1.82
2018-06-29T11:09:36.231Z,1.60
2018-06-29T11:12:04.714Z,1.42
2018-06-29T11:14:34.051Z,1.40
2018-06-29T11:17:02.404Z,1.20
2018-06-29T11:19:30.770Z,1.27
2018-06-29T11:21:59.116Z,1.47
2018-06-29T11:24:27.438Z,1.20
2018-06-29T11:26:55.772Z,1.47
2018-06-29T11:29:24.144Z,1.20
2018-06-29T11:31:52.461Z,1.35
2018-06-29T11:34:20.853Z,1.40
2018-06-29T11:36:49.274Z,1.50
2018-06-29T11:39:17.766Z,1.35
2018-06-29T11:41:46.118Z,1.27
2018-06-29T11:44:14.514Z,1.50
2018-06-29T11:46:42.826Z,1.12
2018-06-29T11:49:11.295Z,1.25
2018-06-29T11:51:39.738Z,1.20
2018-06-29T11:54:08.422Z,1.00
2018-06-29T11:56:38.049Z,1.27
2018-06-29T11:59:06.401Z,1.20
2018-06-29T12:01:34.727Z,1.15
2018-06-29T12:04:03.055Z,1.42
2018-06-29T12:06:31.360Z,1.62
2018-06-29T12:08:59.708Z,1.47
2018-06-29T12:11:28.019Z,1.50
2018-06-29T12:13:56.324Z,1.75
2018-06-29T12:16:24.948Z,1.70
2018-06-29T12:18:53.369Z,1.67
2018-06-29T12:21:21.780Z,2.10
2018-06-29T12:23:50.336Z,1.80
2018-06-29T12:26:18.797Z,1.25
2018-06-29T12:28:47.197Z,1.67
2018-06-29T12:31:15.780Z,1.75
2018-06-29T12:33:44.160Z,1.62
2018-06-29T12:36:12.564Z,1.60
2018-06-29T12:38:40.992Z,1.57
2018-06-29T12:41:09.317Z,1.65
2018-06-29T12:43:37.649Z,1.60
2018-06-29T12:46:05.960Z,1.67
2018-06-29T12:48:34.280Z,1.47
2018-06-29T12:51:02.701Z,1.92
2018-06-29T12:53:31.048Z,1.40
2018-06-29T12:55:59.465Z,1.30
2018-06-29T12:58:27.925Z,1.67
2018-06-29T13:00:56.876Z,1.50
2018-06-29T13:03:25.326Z,1.40
2018-06-29T13:05:53.868Z,1.17
2018-06-29T13:08:22.254Z,1.62
2018-06-29T13:10:50.869Z,1.55
2018-06-29T13:13:19.243Z,1.30
2018-06-29T13:15:47.541Z,1.80
2018-06-29T13:18:15.851Z,1.52
2018-06-29T13:20:44.257Z,1.35
2018-06-29T13:23:12.552Z,0.90
2018-06-29T13:25:40.909Z,1.15
2018-06-29T13:28:09.219Z,1.17
2018-06-29T13:30:37.606Z,1.17
2018-06-29T13:33:05.949Z,1.12
2018-06-29T13:35:34.308Z,1.07
2018-06-29T13:38:02.664Z,1.00
2018-06-29T13:40:31.480Z,1.20
2018-06-29T13:42:59.932Z,1.27
2018-06-29T13:45:28.277Z,1.35
2018-06-29T13:47:56.782Z,1.27
2018-06-29T13:50:25.130Z,1.00
2018-06-29T13:52:53.485Z,1.27
2018-06-29T13:55:21.794Z,1.07
2018-06-29T13:57:50.134Z,0.90
2018-06-29T14:00:18.538Z,1.10
2018-06-29T14:02:46.958Z,0.80
2018-06-29T14:05:15.362Z,1.00
2018-06-29T14:07:43.694Z,1.10
2018-06-29T14:10:11.998Z,1.25
2018-06-29T14:12:40.316Z,1.50
2018-06-29T14:15:08.666Z,1.15
2018-06-29T14:17:42.056Z,0.90
2018-06-29T14:20:10.376Z,1.00
2018-06-29T14:22:38.986Z,1.00
2018-06-29T14:25:07.464Z,1.57
2018-06-29T14:27:36.221Z,1.22
2018-06-29T14:30:04.766Z,1.20
2018-06-29T14:32:33.088Z,0.95
2018-06-29T14:35:01.145Z,1.05
2018-06-29T14:37:29.460Z,1.20
2018-06-29T14:39:57.890Z,1.20
2018-06-29T14:42:26.307Z,1.10
2018-06-29T14:44:54.728Z,1.42
2018-06-29T14:47:23.225Z,1.42
2018-06-29T14:49:51.741Z,1.50
2018-06-29T14:52:20.122Z,0.98
2018-06-29T14:54:48.428Z,1.20
2018-06-29T14:57:16.845Z,1.35
2018-06-29T14:59:45.173Z,0.98
2018-06-29T15:02:13.491Z,1.30
2018-06-29T15:04:41.835Z,1.25
2018-06-29T15:07:10.152Z,1.15
2018-06-29T15:09:38.574Z,1.55
2018-06-29T15:12:06.985Z,1.45
2018-06-29T15:14:35.354Z,1.30
2018-06-29T15:17:03.685Z,1.32
2018-06-29T15:19:32.149Z,1.22
2018-06-29T15:22:00.558Z,1.40
2018-06-29T15:24:28.969Z,1.37
2018-06-29T15:26:57.361Z,1.27
2018-06-29T15:29:25.681Z,1.40
2018-06-29T15:31:54.212Z,1.50
2018-06-29T15:34:22.642Z,1.22
2018-06-29T15:36:50.999Z,1.30
2018-06-29T15:39:19.356Z,1.35
2018-06-29T15:41:47.702Z,1.52
2018-06-29T15:44:16.068Z,1.60
2018-06-29T15:46:44.384Z,1.92
2018-06-29T15:49:12.855Z,2.70
2018-06-29T15:51:41.215Z,2.00
2018-06-29T15:54:09.714Z,2.50
2018-06-29T15:56:40.233Z,1.90
2018-06-29T15:59:10.090Z,2.42
2018-06-29T16:01:38.496Z,2.33
2018-06-29T16:04:06.922Z,2.65
2018-06-29T16:06:35.364Z,2.30
2018-06-29T16:09:05.675Z,2.75
2018-06-29T16:11:34.043Z,2.33
2018-06-29T16:14:02.316Z,2.62
2018-06-29T16:16:30.642Z,2.50
2018-06-29T16:18:58.973Z,2.65
2018-06-29T16:21:27.384Z,2.60
2018-06-29T16:23:55.657Z,2.58
2018-06-29T16:26:24.161Z,2.27
2018-06-29T16:28:52.583Z,2.72
2018-06-29T16:31:21.155Z,2.85
2018-06-29T16:33:49.445Z,2.62
2018-06-29T16:36:17.780Z,2.95
2018-06-29T16:38:46.462Z,2.20
2018-06-29T16:41:14.992Z,2.47
2018-06-29T16:43:43.433Z,2.42
2018-06-29T16:46:11.850Z,2.60
2018-06-29T16:48:40.872Z,3.05
2018-06-29T16:51:09.277Z,2.67
2018-06-29T16:53:37.580Z,2.25
2018-06-29T16:56:05.973Z,2.70
2018-06-29T16:58:34.348Z,3.20
2018-06-29T17:01:02.665Z,2.67
2018-06-29T17:03:30.965Z,2.98
2018-06-29T17:05:59.685Z,2.55
2018-06-29T17:08:28.080Z,2.75
2018-06-29T17:10:56.398Z,2.83
2018-06-29T17:13:24.776Z,2.60
2018-06-29T17:15:53.256Z,3.00
2018-06-29T17:18:21.651Z,2.92
2018-06-29T17:20:50.014Z,2.70
2018-06-29T17:23:18.380Z,3.25
2018-06-29T17:25:46.753Z,3.15
2018-06-29T17:28:15.117Z,4.72
2018-06-29T17:30:43.480Z,3.47
2018-06-29T17:33:11.942Z,3.37
2018-06-29T17:35:40.408Z,3.00
2018-06-29T17:38:08.840Z,3.02
2018-06-29T17:40:38.068Z,3.33
2018-06-29T17:43:06.619Z,3.35
2018-06-29T17:45:35.087Z,3.25
2018-06-29T17:48:03.740Z,2.90
2018-06-29T17:50:32.388Z,3.42
2018-06-29T17:53:01.312Z,3.77
2018-06-29T17:55:29.619Z,3.30
2018-06-29T17:57:58.026Z,3.17
2018-06-29T18:00:26.354Z,3.37
2018-06-29T18:02:54.748Z,3.33
2018-06-29T18:05:23.177Z,3.33
2018-06-29T18:07:51.568Z,3.25
2018-06-29T18:10:19.948Z,3.25
2018-06-29T18:12:48.354Z,3.25
2018-06-29T18:15:16.730Z,3.60
2018-06-29T18:17:45.139Z,3.42
2018-06-29T18:20:13.925Z,2.87
2018-06-29T18:22:42.273Z,2.83
2018-06-29T18:25:10.820Z,3.40
2018-06-29T18:27:39.335Z,3.60
2018-06-29T18:30:08.530Z,3.33
2018-06-29T18:32:36.909Z,3.25
2018-06-29T18:35:05.349Z,3.33
2018-06-29T18:37:33.724Z,3.60
2018-06-29T18:40:02.048Z,3.55
2018-06-29T18:42:30.869Z,3.72
2018-06-29T18:44:59.199Z,3.50
2018-06-29T18:47:27.534Z,3.35
2018-06-29T18:49:55.961Z,3.83
2018-06-29T18:52:24.301Z,4.05
2018-06-29T18:54:52.599Z,4.15
2018-06-29T18:57:20.968Z,3.83
2018-06-29T18:59:49.297Z,3.45
2018-06-29T19:02:17.776Z,3.55
2018-06-29T19:04:47.204Z,3.70
2018-06-29T19:07:15.807Z,3.60
2018-06-29T19:09:44.380Z,3.90
2018-06-29T19:12:12.482Z,3.92
2018-06-29T19:14:40.800Z,4.22
2018-06-29T19:17:09.145Z,4.20
2018-06-29T19:19:37.563Z,4.28
2018-06-29T19:22:10.455Z,4.80
2018-06-29T19:24:38.740Z,4.00
2018-06-29T19:27:07.122Z,4.50
2018-06-29T19:29:35.482Z,4.92
2018-06-29T19:32:03.879Z,4.05
2018-06-29T19:34:32.276Z,4.97
2018-06-29T19:37:00.931Z,4.28
2018-06-29T19:39:29.343Z,4.28
2018-06-29T19:41:57.685Z,4.42
2018-06-29T19:44:26.212Z,5.20
2018-06-29T19:46:54.645Z,4.22
2018-06-29T19:49:23.169Z,4.95
2018-06-29T19:51:51.369Z,4.42
2018-06-29T19:54:20.097Z,3.98
2018-06-29T19:56:48.425Z,4.00
2018-06-29T19:59:16.723Z,4.42
2018-06-29T20:01:45.588Z,4.28
2018-06-29T20:04:13.880Z,3.95
2018-06-29T20:06:42.238Z,4.62
2018-06-29T20:09:12.248Z,3.98
2018-06-29T20:11:40.692Z,4.55
2018-06-29T20:14:11.994Z,3.98
2018-06-29T20:16:40.381Z,4.47
2018-06-29T20:19:08.825Z,4.62
2018-06-29T20:21:37.446Z,4.37
2018-06-29T20:24:05.821Z,4.33
2018-06-29T20:26:34.209Z,3.85
2018-06-29T20:29:02.704Z,3.47
2018-06-29T20:31:31.292Z,4.22
2018-06-29T20:33:59.708Z,4.08
2018-06-29T20:36:28.433Z,3.95
2018-06-29T20:38:56.912Z,4.00
2018-06-29T20:41:25.309Z,3.92
2018-06-29T20:43:53.635Z,4.42
2018-06-29T20:46:22.104Z,3.80
2018-06-29T20:48:50.404Z,4.45
2018-06-29T20:51:18.734Z,4.15
2018-06-29T20:53:47.120Z,4.58
2018-06-29T20:56:15.441Z,4.50
2018-06-29T20:58:43.912Z,3.87
2018-06-29T21:01:12.241Z,4.12
2018-06-29T21:03:40.617Z,4.42
2018-06-29T21:06:09.552Z,3.83
2018-06-29T21:08:39.048Z,4.45
2018-06-29T21:11:07.612Z,5.37
2018-06-29T21:13:36.078Z,5.72
2018-06-29T21:16:04.515Z,5.97
2018-06-29T21:18:32.893Z,5.87
2018-06-29T21:21:01.236Z,5.58
2018-06-29T21:23:29.392Z,5.50
2018-06-29T21:25:57.785Z,5.65
2018-06-29T21:28:26.160Z,5.45
2018-06-29T21:30:54.503Z,5.35
2018-06-29T21:33:22.889Z,5.42
2018-06-29T21:35:51.283Z,5.45
2018-06-29T21:38:19.673Z,4.08
2018-06-29T21:40:47.970Z,5.15
2018-06-29T21:43:16.299Z,4.67
2018-06-29T21:45:44.649Z,4.87
2018-06-29T21:48:13.139Z,5.62
2018-06-29T21:50:42.374Z,4.35
2018-06-29T21:53:10.962Z,5.33
2018-06-29T21:55:39.460Z,5.65
2018-06-29T21:58:07.504Z,5.10
2018-06-29T22:00:42.061Z,5.22
2018-06-29T22:03:11.640Z,5.35
2018-06-29T22:05:41.173Z,5.30
2018-06-29T22:08:10.239Z,5.60
2018-06-29T22:10:39.402Z,5.70
2018-06-29T22:13:07.785Z,5.53
2018-06-29T22:15:36.126Z,5.33
2018-06-29T22:18:04.798Z,5.55
2018-06-29T22:20:33.309Z,6.10
2018-06-29T22:23:01.682Z,5.58
2018-06-29T22:25:30.025Z,5.65
2018-06-29T22:27:58.339Z,5.97
2018-06-29T22:30:26.664Z,5.50
2018-06-29T22:32:54.995Z,6.17
2018-06-29T22:35:23.411Z,6.15
2018-06-29T22:37:51.760Z,6.60
2018-06-29T22:40:20.218Z,6.83
2018-06-29T22:42:48.670Z,6.65
2018-06-29T22:45:17.126Z,6.45
2018-06-29T22:47:45.608Z,6.70
2018-06-29T22:50:14.051Z,7.20
2018-06-29T22:52:42.392Z,7.22
2018-06-29T22:55:10.697Z,6.62
2018-06-29T22:57:39.102Z,7.17
2018-06-29T23:00:07.455Z,6.78
2018-06-29T23:02:35.837Z,6.67
2018-06-29T23:05:04.138Z,7.55
2018-06-29T23:07:32.496Z,7.60
2018-06-29T23:10:00.832Z,7.67
2018-06-29T23:12:29.204Z,7.17
2018-06-29T23:14:57.585Z,7.60
2018-06-29T23:17:25.996Z,7.50
2018-06-29T23:19:54.414Z,7.28
2018-06-29T23:22:22.704Z,8.25
2018-06-29T23:24:51.081Z,7.92
2018-06-29T23:27:19.568Z,8.10
2018-06-29T23:29:47.957Z,7.28
2018-06-29T23:32:16.335Z,7.78
2018-06-29T23:34:44.691Z,7.78
2018-06-29T23:37:12.999Z,8.88
2018-06-29T23:39:41.310Z,9.85
2018-06-29T23:42:09.688Z,10.00
2018-06-29T23:44:38.057Z,8.53
2018-06-29T23:47:06.506Z,8.63
2018-06-29T23:49:34.940Z,7.97
2018-06-29T23:52:03.317Z,9.68
2018-06-29T23:54:31.812Z,11.12
2018-06-29T23:57:00.428Z,9.85
2018-06-29T23:59:29.179Z,10.32
